sensor_id;sensor_type;location;lat;lon;timestamp;pressure;altitude;pressure_sealevel;temperature;humidity
18167;BME280;9208;42.688;23.404;2023-02-01T00:00:10;95588.19;;;3.58;100.00
18167;BME280;9208;42.688;23.404;2023-02-01T00:02:37;95586.56;;;3.60;100.00
18167;BME280;9208;42.688;23.404;2023-02-01T00:05:07;95586.22;;;3.58;100.00
18167;BME280;9208;42.688;23.404;2023-02-01T00:07:32;95585.91;;;3.56;100.00
18167;BME280;9208;42.688;23.404;2023-02-01T00:09:58;95592.31;;;3.62;100.00
18167;BME280;9208;42.688;23.404;2023-02-01T00:12:23;95589.59;;;3.62;100.00
18167;BME280;9208;42.688;23.404;2023-02-01T00:14:49;95579.41;;;3.66;100.00
18167;BME280;9208;42.688;23.404;2023-02-01T00:17:14;95588.31;;;3.67;100.00
18167;BME280;9208;42.688;23.404;2023-02-01T00:19:39;95589.84;;;3.68;100.00
18167;BME280;9208;42.688;23.404;2023-02-01T00:22:05;95582.44;;;3.68;100.00
18167;BME280;9208;42.688;23.404;2023-02-01T00:24:30;95587.22;;;3.64;100.00
18167;BME280;9208;42.688;23.404;2023-02-01T00:26:56;95589.94;;;3.64;100.00
18167;BME280;9208;42.688;23.404;2023-02-01T00:29:21;95580.59;;;3.65;100.00
18167;BME280;9208;42.688;23.404;2023-02-01T00:31:50;95578.44;;;3.60;100.00
18167;BME280;9208;42.688;23.404;2023-02-01T00:34:16;95586.22;;;3.58;100.00
18167;BME280;9208;42.688;23.404;2023-02-01T00:36:42;95584.50;;;3.64;100.00
18167;BME280;9208;42.688;23.404;2023-02-01T00:39:09;95575.78;;;3.57;100.00
18167;BME280;9208;42.688;23.404;2023-02-01T00:41:34;95578.72;;;3.50;100.00
18167;BME280;9208;42.688;23.404;2023-02-01T00:44:00;95571.25;;;3.54;100.00
18167;BME280;9208;42.688;23.404;2023-02-01T00:46:26;95571.56;;;3.56;100.00
18167;BME280;9208;42.688;23.404;2023-02-01T00:48:52;95578.44;;;3.60;100.00
18167;BME280;9208;42.688;23.404;2023-02-01T00:51:21;95569.63;;;3.56;100.00
18167;BME280;9208;42.688;23.404;2023-02-01T00:53:46;95567.66;;;3.57;100.00
18167;BME280;9208;42.688;23.404;2023-02-01T00:56:12;95570.47;;;3.53;100.00
18167;BME280;9208;42.688;23.404;2023-02-01T00:58:38;95570.47;;;3.53;100.00
18167;BME280;9208;42.688;23.404;2023-02-01T01:03:39;95567.78;;;3.53;100.00
18167;BME280;9208;42.688;23.404;2023-02-01T01:06:08;95571.47;;;3.59;100.00
18167;BME280;9208;42.688;23.404;2023-02-01T01:08:34;95569.38;;;3.51;100.00
18167;BME280;9208;42.688;23.404;2023-02-01T01:11:05;95562.03;;;3.51;100.00
18167;BME280;9208;42.688;23.404;2023-02-01T01:13:30;95567.34;;;3.55;100.00
18167;BME280;9208;42.688;23.404;2023-02-01T01:15:56;95559.75;;;3.50;100.00
18167;BME280;9208;42.688;23.404;2023-02-01T01:18:21;95564.75;;;3.51;100.00
18167;BME280;9208;42.688;23.404;2023-02-01T01:20:47;95572.88;;;3.51;100.00
18167;BME280;9208;42.688;23.404;2023-02-01T01:23:12;95564.22;;;3.56;100.00
18167;BME280;9208;42.688;23.404;2023-02-01T01:25:41;95560.00;;;3.55;100.00
18167;BME280;9208;42.688;23.404;2023-02-01T01:28:07;95565.84;;;3.54;100.00
18167;BME280;9208;42.688;23.404;2023-02-01T01:30:34;95570.06;;;3.55;100.00
18167;BME280;9208;42.688;23.404;2023-02-01T01:33:00;95568.13;;;3.55;100.00
18167;BME280;9208;42.688;23.404;2023-02-01T01:35:25;95574.91;;;3.47;100.00
18167;BME280;9208;42.688;23.404;2023-02-01T01:37:51;95578.72;;;3.50;100.00
18167;BME280;9208;42.688;23.404;2023-02-01T01:40:16;95579.91;;;3.49;100.00
18167;BME280;9208;42.688;23.404;2023-02-01T01:42:43;95577.63;;;3.47;100.00
18167;BME280;9208;42.688;23.404;2023-02-01T01:47:48;95585.53;;;3.54;100.00
18167;BME280;9208;42.688;23.404;2023-02-01T01:50:18;95580.56;;;3.53;100.00
18167;BME280;9208;42.688;23.404;2023-02-01T01:52:48;95589.13;;;3.51;100.00
18167;BME280;9208;42.688;23.404;2023-02-01T01:55:17;95583.38;;;3.49;100.00
18167;BME280;9208;42.688;23.404;2023-02-01T01:57:48;95581.84;;;3.48;100.00
18167;BME280;9208;42.688;23.404;2023-02-01T02:00:16;95573.28;;;3.50;100.00
18167;BME280;9208;42.688;23.404;2023-02-01T02:02:45;95575.66;;;3.48;100.00
18167;BME280;9208;42.688;23.404;2023-02-01T02:05:12;95579.38;;;3.54;100.00
18167;BME280;9208;42.688;23.404;2023-02-01T02:07:42;95578.28;;;3.51;100.00
18167;BME280;9208;42.688;23.404;2023-02-01T02:10:10;95582.03;;;3.41;100.00
18167;BME280;9208;42.688;23.404;2023-02-01T02:12:40;95575.97;;;3.37;100.00
18167;BME280;9208;42.688;23.404;2023-02-01T02:15:08;95569.28;;;3.26;100.00
18167;BME280;9208;42.688;23.404;2023-02-01T02:31:30;95565.59;;;3.20;100.00
18167;BME280;9208;42.688;23.404;2023-02-01T02:37:38;95563.50;;;3.11;100.00
18167;BME280;9208;42.688;23.404;2023-02-01T02:42:20;95562.56;;;3.02;100.00
18167;BME280;9208;42.688;23.404;2023-02-01T02:45:20;95564.69;;;2.94;100.00
18167;BME280;9208;42.688;23.404;2023-02-01T02:48:28;95560.38;;;2.97;100.00
18167;BME280;9208;42.688;23.404;2023-02-01T02:51:02;95551.47;;;2.96;100.00
18167;BME280;9208;42.688;23.404;2023-02-01T02:54:05;95559.13;;;3.01;100.00
18167;BME280;9208;42.688;23.404;2023-02-01T02:56:52;95557.50;;;3.04;100.00
18167;BME280;9208;42.688;23.404;2023-02-01T02:59:38;95568.41;;;3.00;100.00
18167;BME280;9208;42.688;23.404;2023-02-01T03:02:25;95557.66;;;2.97;100.00
18167;BME280;9208;42.688;23.404;2023-02-01T03:05:10;95559.13;;;3.01;100.00
18167;BME280;9208;42.688;23.404;2023-02-01T03:08:11;95568.09;;;2.98;100.00
18167;BME280;9208;42.688;23.404;2023-02-01T03:13:38;95564.34;;;3.08;100.00
18167;BME280;9208;42.688;23.404;2023-02-01T03:17:00;95579.81;;;3.08;100.00
18167;BME280;9208;42.688;23.404;2023-02-01T03:21:48;95580.69;;;3.05;100.00
18167;BME280;9208;42.688;23.404;2023-02-01T03:26:55;95594.47;;;3.10;100.00
18167;BME280;9208;42.688;23.404;2023-02-01T03:29:29;95602.50;;;3.14;100.00
18167;BME280;9208;42.688;23.404;2023-02-01T03:31:55;95605.63;;;3.12;100.00
18167;BME280;9208;42.688;23.404;2023-02-01T03:34:21;95592.34;;;3.18;100.00
18167;BME280;9208;42.688;23.404;2023-02-01T03:37:10;95604.34;;;3.17;100.00
18167;BME280;9208;42.688;23.404;2023-02-01T03:39:45;95599.28;;;3.19;100.00
18167;BME280;9208;42.688;23.404;2023-02-01T03:42:17;95601.41;;;3.11;100.00
18167;BME280;9208;42.688;23.404;2023-02-01T03:44:50;95602.75;;;3.19;100.00
18167;BME280;9208;42.688;23.404;2023-02-01T03:47:21;95595.47;;;3.16;100.00
18167;BME280;9208;42.688;23.404;2023-02-01T03:49:56;95584.22;;;3.18;100.00
18167;BME280;9208;42.688;23.404;2023-02-01T03:52:53;95586.06;;;3.21;100.00
18167;BME280;9208;42.688;23.404;2023-02-01T03:55:22;95597.34;;;3.19;100.00
18167;BME280;9208;42.688;23.404;2023-02-01T03:57:53;95597.34;;;3.19;100.00
18167;BME280;9208;42.688;23.404;2023-02-01T04:00:24;95599.59;;;3.21;100.00
18167;BME280;9208;42.688;23.404;2023-02-01T04:02:50;95601.16;;;3.22;100.00
18167;BME280;9208;42.688;23.404;2023-02-01T04:05:16;95609.50;;;3.27;100.00
18167;BME280;9208;42.688;23.404;2023-02-01T04:07:42;95599.38;;;3.15;100.00
18167;BME280;9208;42.688;23.404;2023-02-01T04:10:09;95593.72;;;3.10;100.00
18167;BME280;9208;42.688;23.404;2023-02-01T04:12:34;95593.19;;;3.15;100.00
18167;BME280;9208;42.688;23.404;2023-02-01T04:15:00;95593.28;;;3.11;100.00
18167;BME280;9208;42.688;23.404;2023-02-01T04:17:25;95592.09;;;3.12;100.00
18167;BME280;9208;42.688;23.404;2023-02-01T04:19:51;95593.75;;;3.22;100.00
18167;BME280;9208;42.688;23.404;2023-02-01T04:22:16;95593.88;;;3.19;100.00
18167;BME280;9208;42.688;23.404;2023-02-01T04:24:41;95585.38;;;3.17;100.00
18167;BME280;9208;42.688;23.404;2023-02-01T04:27:07;95593.03;;;3.22;100.00
18167;BME280;9208;42.688;23.404;2023-02-01T04:29:33;95599.84;;;3.26;100.00
18167;BME280;9208;42.688;23.404;2023-02-01T04:31:58;95596.81;;;3.24;100.00
18167;BME280;9208;42.688;23.404;2023-02-01T04:34:24;95594.53;;;3.23;100.00
18167;BME280;9208;42.688;23.404;2023-02-01T04:36:50;95600.38;;;3.21;100.00
18167;BME280;9208;42.688;23.404;2023-02-01T04:39:16;95592.56;;;3.23;100.00
18167;BME280;9208;42.688;23.404;2023-02-01T04:41:42;95582.25;;;3.18;100.00
18167;BME280;9208;42.688;23.404;2023-02-01T04:44:13;95589.38;;;3.28;100.00
18167;BME280;9208;42.688;23.404;2023-02-01T04:46:39;95585.53;;;3.26;100.00
18167;BME280;9208;42.688;23.404;2023-02-01T04:49:04;95602.72;;;3.35;100.00
18167;BME280;9208;42.688;23.404;2023-02-01T04:51:29;95597.81;;;3.30;100.00
18167;BME280;9208;42.688;23.404;2023-02-01T04:53:55;95595.34;;;3.36;100.00
18167;BME280;9208;42.688;23.404;2023-02-01T04:56:21;95592.41;;;3.30;100.00
18167;BME280;9208;42.688;23.404;2023-02-01T04:58:46;95599.16;;;3.38;100.00
18167;BME280;9208;42.688;23.404;2023-02-01T05:01:12;95609.13;;;3.41;100.00
18167;BME280;9208;42.688;23.404;2023-02-01T05:03:37;95611.00;;;3.44;100.00
18167;BME280;9208;42.688;23.404;2023-02-01T05:06:03;95613.38;;;3.42;100.00
18167;BME280;9208;42.688;23.404;2023-02-01T05:08:30;95616.00;;;3.46;100.00
18167;BME280;9208;42.688;23.404;2023-02-01T05:10:56;95624.00;;;3.49;100.00
18167;BME280;9208;42.688;23.404;2023-02-01T05:13:22;95626.72;;;3.49;100.00
18167;BME280;9208;42.688;23.404;2023-02-01T05:16:06;95637.81;;;3.55;100.00
18167;BME280;9208;42.688;23.404;2023-02-01T05:18:31;95636.72;;;3.52;100.00
18167;BME280;9208;42.688;23.404;2023-02-01T05:20:57;95631.56;;;3.58;100.00
18167;BME280;9208;42.688;23.404;2023-02-01T05:23:22;95629.59;;;3.58;100.00
18167;BME280;9208;42.688;23.404;2023-02-01T05:25:48;95628.06;;;3.57;100.00
18167;BME280;9208;42.688;23.404;2023-02-01T05:28:13;95624.38;;;3.51;100.00
18167;BME280;9208;42.688;23.404;2023-02-01T05:30:39;95627.41;;;3.53;100.00
18167;BME280;9208;42.688;23.404;2023-02-01T05:33:04;95627.41;;;3.53;100.00
18167;BME280;9208;42.688;23.404;2023-02-01T05:35:30;95625.78;;;3.56;100.00
18167;BME280;9208;42.688;23.404;2023-02-01T05:37:55;95638.38;;;3.62;100.00
18167;BME280;9208;42.688;23.404;2023-02-01T05:40:21;95635.91;;;3.68;100.00
18167;BME280;9208;42.688;23.404;2023-02-01T05:42:46;95637.53;;;3.65;100.00
18167;BME280;9208;42.688;23.404;2023-02-01T05:45:12;95629.94;;;3.60;100.00
18167;BME280;9208;42.688;23.404;2023-02-01T05:47:37;95636.44;;;3.63;100.00
18167;BME280;9208;42.688;23.404;2023-02-01T05:50:04;95636.53;;;3.59;100.00
18167;BME280;9208;42.688;23.404;2023-02-01T05:52:29;95627.13;;;3.64;100.00
18167;BME280;9208;42.688;23.404;2023-02-01T05:54:55;95629.41;;;3.65;100.00
18167;BME280;9208;42.688;23.404;2023-02-01T05:57:20;95630.59;;;3.64;100.00
18167;BME280;9208;42.688;23.404;2023-02-01T05:59:45;95623.47;;;3.70;100.00
18167;BME280;9208;42.688;23.404;2023-02-01T06:02:12;95635.50;;;3.69;100.00
18167;BME280;9208;42.688;23.404;2023-02-01T06:04:38;95634.81;;;3.65;100.00
18167;BME280;9208;42.688;23.404;2023-02-01T06:07:05;95639.28;;;3.72;100.00
18167;BME280;9208;42.688;23.404;2023-02-01T06:09:32;95632.56;;;3.76;100.00
18167;BME280;9208;42.688;23.404;2023-02-01T06:11:57;95642.44;;;3.70;100.00
18167;BME280;9208;42.688;23.404;2023-02-01T06:14:23;95641.91;;;3.75;100.00
18167;BME280;9208;42.688;23.404;2023-02-01T06:16:49;95640.19;;;3.81;100.00
18167;BME280;9208;42.688;23.404;2023-02-01T06:19:15;95643.66;;;3.82;100.00
18167;BME280;9208;42.688;23.404;2023-02-01T06:21:40;95646.81;;;3.80;100.00
18167;BME280;9208;42.688;23.404;2023-02-01T06:24:06;95643.91;;;3.87;100.00
18167;BME280;9208;42.688;23.404;2023-02-01T06:26:31;95650.84;;;3.88;100.00
18167;BME280;9208;42.688;23.404;2023-02-01T06:29:22;95646.81;;;3.80;100.00
18167;BME280;9208;42.688;23.404;2023-02-01T06:31:47;95648.97;;;3.85;100.00
18167;BME280;9208;42.688;23.404;2023-02-01T06:34:13;95647.78;;;3.86;100.00
18167;BME280;9208;42.688;23.404;2023-02-01T06:36:38;95645.75;;;3.90;100.00
18167;BME280;9208;42.688;23.404;2023-02-01T06:39:04;95652.25;;;3.93;100.00
18167;BME280;9208;42.688;23.404;2023-02-01T06:41:29;95657.59;;;3.96;100.00
18167;BME280;9208;42.688;23.404;2023-02-01T06:43:55;95662.16;;;3.99;100.00
18167;BME280;9208;42.688;23.404;2023-02-01T06:46:21;95651.66;;;4.01;100.00
18167;BME280;9208;42.688;23.404;2023-02-01T06:48:46;95653.69;;;3.97;100.00
18167;BME280;9208;42.688;23.404;2023-02-01T06:51:22;95658.16;;;4.04;100.00
18167;BME280;9208;42.688;23.404;2023-02-01T06:53:47;95662.59;;;3.98;100.00
18167;BME280;9208;42.688;23.404;2023-02-01T06:56:13;95675.53;;;4.06;100.00
18167;BME280;9208;42.688;23.404;2023-02-01T06:58:38;95673.91;;;4.09;100.00
18167;BME280;9208;42.688;23.404;2023-02-01T07:01:08;95678.38;;;4.15;100.00
18167;BME280;9208;42.688;23.404;2023-02-01T07:03:34;95674.88;;;4.15;100.00
18167;BME280;9208;42.688;23.404;2023-02-01T07:05:59;95667.53;;;4.15;100.00
18167;BME280;9208;42.688;23.404;2023-02-01T07:08:30;95674.28;;;4.23;100.00
18167;BME280;9208;42.688;23.404;2023-02-01T07:10:56;95681.94;;;4.12;100.00
18167;BME280;9208;42.688;23.404;2023-02-01T07:13:21;95680.56;;;4.20;100.00
18167;BME280;9208;42.688;23.404;2023-02-01T07:15:47;95682.06;;;4.21;100.00
18167;BME280;9208;42.688;23.404;2023-02-01T07:18:16;95692.84;;;4.25;100.00
18167;BME280;9208;42.688;23.404;2023-02-01T07:20:42;95689.38;;;4.24;100.00
18167;BME280;9208;42.688;23.404;2023-02-01T07:23:10;95692.06;;;4.24;100.00
18167;BME280;9208;42.688;23.404;2023-02-01T07:25:35;95699.56;;;4.20;100.00
18167;BME280;9208;42.688;23.404;2023-02-01T07:28:01;95708.50;;;4.33;100.00
18167;BME280;9208;42.688;23.404;2023-02-01T07:30:26;95701.31;;;4.27;100.00
18167;BME280;9208;42.688;23.404;2023-02-01T07:32:52;95703.25;;;4.26;100.00
18167;BME280;9208;42.688;23.404;2023-02-01T07:35:17;95717.16;;;4.28;100.00
18167;BME280;9208;42.688;23.404;2023-02-01T07:37:43;95716.75;;;4.30;100.00
18167;BME280;9208;42.688;23.404;2023-02-01T07:40:09;95713.69;;;4.28;100.00
18167;BME280;9208;42.688;23.404;2023-02-01T07:42:34;95717.06;;;4.32;100.00
18167;BME280;9208;42.688;23.404;2023-02-01T07:45:00;95726.19;;;4.38;100.00
18167;BME280;9208;42.688;23.404;2023-02-01T07:47:27;95722.63;;;4.41;100.00
18167;BME280;9208;42.688;23.404;2023-02-01T07:49:53;95726.75;;;4.45;100.00
18167;BME280;9208;42.688;23.404;2023-02-01T07:52:18;95729.66;;;4.38;100.00
18167;BME280;9208;42.688;23.404;2023-02-01T07:54:44;95725.22;;;4.44;100.00
18167;BME280;9208;42.688;23.404;2023-02-01T07:57:09;95736.31;;;4.50;100.00
18167;BME280;9208;42.688;23.404;2023-02-01T07:59:37;95733.03;;;4.42;100.00
18167;BME280;9208;42.688;23.404;2023-02-01T08:02:22;95733.72;;;4.46;100.00
18167;BME280;9208;42.688;23.404;2023-02-01T08:04:47;95748.69;;;4.51;100.00
18167;BME280;9208;42.688;23.404;2023-02-01T08:07:13;95742.16;;;4.48;100.00
18167;BME280;9208;42.688;23.404;2023-02-01T08:09:39;95745.66;;;4.49;100.00
18167;BME280;9208;42.688;23.404;2023-02-01T08:12:04;95740.97;;;4.49;100.00
18167;BME280;9208;42.688;23.404;2023-02-01T08:14:30;95752.19;;;4.51;100.00
18167;BME280;9208;42.688;23.404;2023-02-01T08:16:55;95729.25;;;4.52;100.00
18167;BME280;9208;42.688;23.404;2023-02-01T08:19:20;95732.75;;;4.53;100.00
18167;BME280;9208;42.688;23.404;2023-02-01T08:21:47;95732.94;;;4.58;100.00
18167;BME280;9208;42.688;23.404;2023-02-01T08:24:14;95740.59;;;4.63;100.00
18167;BME280;9208;42.688;23.404;2023-02-01T08:26:39;95747.84;;;4.66;100.00
18167;BME280;9208;42.688;23.404;2023-02-01T08:29:08;95750.81;;;4.72;100.00
18167;BME280;9208;42.688;23.404;2023-02-01T08:31:35;95742.41;;;4.66;100.00
18167;BME280;9208;42.688;23.404;2023-02-01T08:34:02;95760.34;;;4.76;100.00
18167;BME280;9208;42.688;23.404;2023-02-01T08:36:33;95745.38;;;4.72;100.00
18167;BME280;9208;42.688;23.404;2023-02-01T08:38:59;95753.31;;;4.79;100.00
18167;BME280;9208;42.688;23.404;2023-02-01T08:41:27;95757.34;;;4.87;100.00
18167;BME280;9208;42.688;23.404;2023-02-01T08:43:55;95761.78;;;4.93;100.00
18167;BME280;9208;42.688;23.404;2023-02-01T08:46:22;95747.13;;;4.91;100.00
18167;BME280;9208;42.688;23.404;2023-02-01T08:48:48;95755.38;;;4.87;100.00
18167;BME280;9208;42.688;23.404;2023-02-01T08:51:17;95751.34;;;4.92;100.00
18167;BME280;9208;42.688;23.404;2023-02-01T08:53:43;95745.84;;;4.95;100.00
18167;BME280;9208;42.688;23.404;2023-02-01T08:56:11;95752.00;;;4.96;100.00
18167;BME280;9208;42.688;23.404;2023-02-01T08:58:37;95756.59;;;4.99;100.00
18167;BME280;9208;42.688;23.404;2023-02-01T09:01:07;95771.59;;;5.03;100.00
18167;BME280;9208;42.688;23.404;2023-02-01T09:03:34;95766.81;;;5.07;100.00
18167;BME280;9208;42.688;23.404;2023-02-01T09:06:08;95771.72;;;5.12;100.00
18167;BME280;9208;42.688;23.404;2023-02-01T09:08:34;95780.97;;;5.15;100.00
18167;BME280;9208;42.688;23.404;2023-02-01T09:11:02;95773.66;;;5.12;100.00
18167;BME280;9208;42.688;23.404;2023-02-01T09:13:28;95776.28;;;5.15;100.00
18167;BME280;9208;42.688;23.404;2023-02-01T09:15:53;95794.75;;;5.20;100.00
18167;BME280;9208;42.688;23.404;2023-02-01T09:18:20;95785.75;;;5.23;100.00
18167;BME280;9208;42.688;23.404;2023-02-01T09:20:46;95781.06;;;5.24;100.00
18167;BME280;9208;42.688;23.404;2023-02-01T09:23:12;95797.94;;;5.31;100.00
18167;BME280;9208;42.688;23.404;2023-02-01T09:25:38;95788.44;;;5.36;100.00
18167;BME280;9208;42.688;23.404;2023-02-01T09:28:05;95798.34;;;5.42;99.10
18167;BME280;9208;42.688;23.404;2023-02-01T09:30:33;95794.88;;;5.42;98.65
18167;BME280;9208;42.688;23.404;2023-02-01T09:32:59;95780.72;;;5.34;99.42
18167;BME280;9208;42.688;23.404;2023-02-01T09:35:25;95779.31;;;5.42;99.78
18167;BME280;9208;42.688;23.404;2023-02-01T09:37:52;95771.03;;;5.46;99.64
18167;BME280;9208;42.688;23.404;2023-02-01T09:40:21;95762.44;;;5.47;99.89
18167;BME280;9208;42.688;23.404;2023-02-01T09:47:50;95766.56;;;5.64;99.42
18167;BME280;9208;42.688;23.404;2023-02-01T09:50:22;95765.88;;;5.73;98.90
18167;BME280;9208;42.688;23.404;2023-02-01T09:53:02;95760.34;;;5.76;98.67
18167;BME280;9208;42.688;23.404;2023-02-01T09:55:38;95761.66;;;5.72;97.81
18167;BME280;9208;42.688;23.404;2023-02-01T09:58:33;95759.47;;;5.79;98.15
18167;BME280;9208;42.688;23.404;2023-02-01T10:00:59;95751.97;;;5.83;97.85
18167;BME280;9208;42.688;23.404;2023-02-01T10:03:34;95753.69;;;5.90;97.29
18167;BME280;9208;42.688;23.404;2023-02-01T10:06:19;95760.56;;;5.94;97.01
18167;BME280;9208;42.688;23.404;2023-02-01T10:20:16;95761.28;;;6.07;95.41
18167;BME280;9208;42.688;23.404;2023-02-01T10:25:44;95740.72;;;6.28;96.24
18167;BME280;9208;42.688;23.404;2023-02-01T10:28:16;95738.06;;;6.37;94.30
18167;BME280;9208;42.688;23.404;2023-02-01T10:30:48;95742.25;;;6.50;94.26
18167;BME280;9208;42.688;23.404;2023-02-01T10:33:27;95738.69;;;6.62;94.32
18167;BME280;9208;42.688;23.404;2023-02-01T10:36:22;95733.59;;;6.73;93.65
18167;BME280;9208;42.688;23.404;2023-02-01T10:38:50;95737.78;;;6.87;93.24
18167;BME280;9208;42.688;23.404;2023-02-01T10:41:19;95737.06;;;6.95;93.27
18167;BME280;9208;42.688;23.404;2023-02-01T10:43:50;95736.31;;;6.95;91.89
18167;BME280;9208;42.688;23.404;2023-02-01T10:46:18;95755.34;;;7.16;91.50
18167;BME280;9208;42.688;23.404;2023-02-01T10:48:44;95756.59;;;7.24;91.96
18167;BME280;9208;42.688;23.404;2023-02-01T10:51:20;95766.75;;;7.33;90.11
18167;BME280;9208;42.688;23.404;2023-02-01T10:53:53;95778.59;;;7.39;89.17
18167;BME280;9208;42.688;23.404;2023-02-01T10:56:25;95769.53;;;7.42;89.05
18167;BME280;9208;42.688;23.404;2023-02-01T10:59:00;95767.91;;;7.53;88.69
18167;BME280;9208;42.688;23.404;2023-02-01T11:01:30;95773.53;;;7.59;86.62
18167;BME280;9208;42.688;23.404;2023-02-01T11:04:00;95767.78;;;7.75;86.12
18167;BME280;9208;42.688;23.404;2023-02-01T11:06:39;95774.78;;;7.76;85.14
18167;BME280;9208;42.688;23.404;2023-02-01T11:11:30;95786.44;;;7.76;82.72
18167;BME280;9208;42.688;23.404;2023-02-01T11:14:02;95773.41;;;7.71;82.41
18167;BME280;9208;42.688;23.404;2023-02-01T11:16:38;95771.13;;;7.70;82.36
18167;BME280;9208;42.688;23.404;2023-02-01T11:19:05;95768.41;;;7.79;82.04
18167;BME280;9208;42.688;23.404;2023-02-01T11:21:34;95775.25;;;7.83;81.38
18167;BME280;9208;42.688;23.404;2023-02-01T11:24:05;95753.72;;;7.85;81.27
18167;BME280;9208;42.688;23.404;2023-02-01T11:26:39;95754.66;;;7.82;81.17
18167;BME280;9208;42.688;23.404;2023-02-01T11:29:11;95763.44;;;7.77;79.87
18167;BME280;9208;42.688;23.404;2023-02-01T11:31:39;95774.50;;;7.83;78.50
18167;BME280;9208;42.688;23.404;2023-02-01T11:34:14;95776.59;;;7.79;79.06
18167;BME280;9208;42.688;23.404;2023-02-01T11:36:41;95773.41;;;7.71;79.08
18167;BME280;9208;42.688;23.404;2023-02-01T11:39:33;95764.34;;;7.83;78.58
18167;BME280;9208;42.688;23.404;2023-02-01T11:42:06;95755.69;;;7.76;79.00
18167;BME280;9208;42.688;23.404;2023-02-01T11:44:40;95745.34;;;7.62;78.64
18167;BME280;9208;42.688;23.404;2023-02-01T11:48:00;95747.63;;;7.72;78.84
18167;BME280;9208;42.688;23.404;2023-02-01T11:50:19;95744.31;;;7.68;78.70
18167;BME280;9208;42.688;23.404;2023-02-01T11:56:05;95709.69;;;7.47;80.29
18167;BME280;9208;42.688;23.404;2023-02-01T12:15:22;95715.50;;;7.76;78.08
18167;BME280;9208;42.688;23.404;2023-02-01T12:24:07;95708.25;;;7.82;78.44
18167;BME280;9208;42.688;23.404;2023-02-01T12:26:40;95713.22;;;7.84;79.07
18167;BME280;9208;42.688;23.404;2023-02-01T12:32:25;95698.53;;;7.90;79.12
18167;BME280;9208;42.688;23.404;2023-02-01T12:43:44;95720.97;;;7.94;77.49
18167;BME280;9208;42.688;23.404;2023-02-01T12:46:16;95718.25;;;8.03;77.94
18167;BME280;9208;42.688;23.404;2023-02-01T12:49:10;95722.19;;;7.93;77.83
18167;BME280;9208;42.688;23.404;2023-02-01T12:51:40;95721.75;;;7.95;77.42
18167;BME280;9208;42.688;23.404;2023-02-01T12:57:17;95712.34;;;8.14;77.56
18167;BME280;9208;42.688;23.404;2023-02-01T13:05:17;95727.50;;;8.15;75.18
18167;BME280;9208;42.688;23.404;2023-02-01T13:10:32;95724.97;;;8.20;75.02
18167;BME280;9208;42.688;23.404;2023-02-01T13:13:10;95730.28;;;8.24;74.95
18167;BME280;9208;42.688;23.404;2023-02-01T13:15:47;95740.44;;;8.14;75.05
18167;BME280;9208;42.688;23.404;2023-02-01T13:18:20;95735.56;;;8.09;74.64
18167;BME280;9208;42.688;23.404;2023-02-01T13:23:43;95719.47;;;8.11;76.47
18167;BME280;9208;42.688;23.404;2023-02-01T13:26:10;95714.19;;;8.17;75.79
18167;BME280;9208;42.688;23.404;2023-02-01T13:28:52;95711.47;;;8.26;75.50
18167;BME280;9208;42.688;23.404;2023-02-01T13:34:44;95729.22;;;8.21;74.95
18167;BME280;9208;42.688;23.404;2023-02-01T13:42:48;95727.25;;;8.31;74.45
18167;BME280;9208;42.688;23.404;2023-02-01T13:45:19;95734.38;;;8.28;74.08
18167;BME280;9208;42.688;23.404;2023-02-01T13:47:47;95736.22;;;8.22;73.80
18167;BME280;9208;42.688;23.404;2023-02-01T13:52:44;95724.16;;;8.11;75.79
18167;BME280;9208;42.688;23.404;2023-02-01T13:57:46;95718.56;;;8.14;75.53
18167;BME280;9208;42.688;23.404;2023-02-01T14:00:28;95707.78;;;8.20;75.75
18167;BME280;9208;42.688;23.404;2023-02-01T14:10:51;95713.88;;;8.33;74.57
18167;BME280;9208;42.688;23.404;2023-02-01T14:21:30;95709.97;;;8.34;74.72
18167;BME280;9208;42.688;23.404;2023-02-01T14:24:02;95692.81;;;8.33;74.48
18167;BME280;9208;42.688;23.404;2023-02-01T14:26:46;95694.63;;;8.27;74.29
18167;BME280;9208;42.688;23.404;2023-02-01T14:31:58;95694.16;;;8.29;74.86
18167;BME280;9208;42.688;23.404;2023-02-01T14:37:35;95678.84;;;8.31;74.88
18167;BME280;9208;42.688;23.404;2023-02-01T14:42:44;95670.94;;;8.15;75.69
18167;BME280;9208;42.688;23.404;2023-02-01T14:50:32;95672.78;;;8.09;75.41
18167;BME280;9208;42.688;23.404;2023-02-01T14:55:53;95655.91;;;7.93;77.43
18167;BME280;9208;42.688;23.404;2023-02-01T15:00:52;95666.69;;;7.96;76.41
18167;BME280;9208;42.688;23.404;2023-02-01T15:03:29;95653.97;;;7.93;76.77
18167;BME280;9208;42.688;23.404;2023-02-01T15:05:58;95663.81;;;8.00;77.05
18167;BME280;9208;42.688;23.404;2023-02-01T15:08:32;95667.00;;;7.98;77.05
18167;BME280;9208;42.688;23.404;2023-02-01T15:11:02;95660.47;;;7.96;76.61
18167;BME280;9208;42.688;23.404;2023-02-01T15:13:31;95657.75;;;7.78;77.76
18167;BME280;9208;42.688;23.404;2023-02-01T15:16:12;95664.59;;;7.82;77.28
18167;BME280;9208;42.688;23.404;2023-02-01T15:18:39;95659.88;;;7.83;77.53
18167;BME280;9208;42.688;23.404;2023-02-01T15:21:06;95649.09;;;7.70;77.96
18167;BME280;9208;42.688;23.404;2023-02-01T15:23:32;95635.44;;;7.61;78.99
18167;BME280;9208;42.688;23.404;2023-02-01T15:25:58;95632.09;;;7.57;78.80
18167;BME280;9208;42.688;23.404;2023-02-01T15:28:25;95631.34;;;7.57;79.04
18167;BME280;9208;42.688;23.404;2023-02-01T15:30:58;95626.19;;;7.50;79.12
18167;BME280;9208;42.688;23.404;2023-02-01T15:33:25;95623.03;;;7.60;78.86
18167;BME280;9208;42.688;23.404;2023-02-01T15:38:41;95614.22;;;7.47;79.70
18167;BME280;9208;42.688;23.404;2023-02-01T15:43:40;95615.72;;;7.48;79.74
18167;BME280;9208;42.688;23.404;2023-02-01T15:46:09;95621.63;;;7.38;79.57
18167;BME280;9208;42.688;23.404;2023-02-01T15:48:45;95623.91;;;7.39;79.83
18167;BME280;9208;42.688;23.404;2023-02-01T15:51:17;95627.69;;;7.42;79.60
18167;BME280;9208;42.688;23.404;2023-02-01T15:53:45;95620.28;;;7.42;79.23
18167;BME280;9208;42.688;23.404;2023-02-01T15:56:11;95622.41;;;7.38;79.74